Celtic Explorer — EIGB — position and weather

sailwx.info

Track history (hours):
 
Tides and Currents Weather Stations Pressure Air Temp Water Temp Dewpoint Dewpoint Depression Visibility Wind Speed Wind Dir Waves Ship Positions

Oceanographic research ship Celtic Explorer (Ireland)

Detailed information on ship capabilities available from University of Delaware's Ocean Information Center.

Last reported at 2017-Mar-19 20:33 UTC. Time now 2017-Mar-26 22:44 UTC.
Position N 52°57' W 009°38'.

Type: . MMSI: 250487000.

Date/timePositionNaut miles runAvg speedWind from/ knotsBaromVisibWave heightAir tempDewpointWater temp
2017-Mar-19 20:33N 52°57' W 009°38'8 7.3
2017-Mar-19 19:27N 53°02' W 009°27'  
2017-Mar-15 03:25N 51°24' W 010°18'6 6.6
2017-Mar-15 02:33N 51°19' W 010°21'4 4.1
2017-Mar-15 01:32N 51°15' W 010°20'9 8.2
2017-Mar-15 00:28N 51°07' W 010°24'5 4.5
2017-Mar-14 23:20N 51°02' W 010°24'5 5.9
2017-Mar-14 22:33N 51°03' W 010°17'7 5.2
2017-Mar-14 21:12N 51°05' W 010°07'5 7.7
2017-Mar-14 20:33N 51°08' W 010°01'8 7.7
2017-Mar-14 19:33N 51°13' W 009°51'5 5.0
2017-Mar-14 18:33N 51°16' W 009°44'6 5.8
2017-Mar-14 17:31N 51°11' W 009°38'7 7.5
2017-Mar-14 16:33N 51°05' W 009°34'7 4.7
2017-Mar-14 15:09N 51°06' W 009°24'12 7.2
2017-Mar-14 13:29N 51°03' W 009°05'6 2.9
2017-Mar-14 11:33N 51°09' W 009°07'8 8.0
2017-Mar-14 10:33N 51°14' W 009°16'4 3.4
2017-Mar-14 09:32N 51°17' W 009°12'7 7.6
2017-Mar-14 08:33N 51°24' W 009°08'4 3.9
2017-Mar-14 07:33N 51°26' W 009°03'4 3.7
2017-Mar-14 06:33N 51°27' W 008°57'7 6.8
2017-Mar-14 05:33N 51°30' W 008°48'5 4.9
2017-Mar-14 04:33N 51°32' W 008°41'15 6.6
2017-Mar-14 02:20N 51°23' W 008°22'6 7.0
2017-Mar-14 01:33N 51°19' W 008°15'3 3.0
2017-Mar-14 00:31N 51°17' W 008°13'55 6.8
2017-Mar-13 16:24N 50°42' W 009°21'14 4.7
2017-Mar-13 13:19N 50°41' W 009°43'6 8.1
2017-Mar-13 12:33N 50°35' W 009°43'8 7.0
2017-Mar-13 11:26N 50°27' W 009°41'4 4.0
2017-Mar-13 10:33N 50°25' W 009°37'  
Track history (hours):
 
Tides and Currents Weather Stations Pressure Air Temp Water Temp Dewpoint Dewpoint Depression Visibility Wind Speed Wind Dir Waves Ship Positions

Oceanographic research ship Celtic Explorer (Ireland)

Detailed information on ship capabilities available from University of Delaware's Ocean Information Center.

Last reported at 2017-Mar-19 20:33 UTC. Time now 2017-Mar-26 22:44 UTC.
Position N 52°57' W 009°38'.

Type: . MMSI: 250487000.

Date/timePositionNaut miles runAvg speedWind from/ knotsBaromVisibWave heightAir tempDewpointWater temp
2017-Mar-19 20:33N 52°57' W 009°38'8 7.3
2017-Mar-19 19:27N 53°02' W 009°27'  
2017-Mar-15 03:25N 51°24' W 010°18'6 6.6
2017-Mar-15 02:33N 51°19' W 010°21'4 4.1
2017-Mar-15 01:32N 51°15' W 010°20'9 8.2
2017-Mar-15 00:28N 51°07' W 010°24'5 4.5
2017-Mar-14 23:20N 51°02' W 010°24'5 5.9
2017-Mar-14 22:33N 51°03' W 010°17'7 5.2
2017-Mar-14 21:12N 51°05' W 010°07'5 7.7
2017-Mar-14 20:33N 51°08' W 010°01'8 7.7
2017-Mar-14 19:33N 51°13' W 009°51'5 5.0
2017-Mar-14 18:33N 51°16' W 009°44'6 5.8
2017-Mar-14 17:31N 51°11' W 009°38'7 7.5
2017-Mar-14 16:33N 51°05' W 009°34'7 4.7
2017-Mar-14 15:09N 51°06' W 009°24'12 7.2
2017-Mar-14 13:29N 51°03' W 009°05'6 2.9
2017-Mar-14 11:33N 51°09' W 009°07'8 8.0
2017-Mar-14 10:33N 51°14' W 009°16'4 3.4
2017-Mar-14 09:32N 51°17' W 009°12'7 7.6
2017-Mar-14 08:33N 51°24' W 009°08'4 3.9
2017-Mar-14 07:33N 51°26' W 009°03'4 3.7
2017-Mar-14 06:33N 51°27' W 008°57'7 6.8
2017-Mar-14 05:33N 51°30' W 008°48'5 4.9
2017-Mar-14 04:33N 51°32' W 008°41'15 6.6
2017-Mar-14 02:20N 51°23' W 008°22'6 7.0
2017-Mar-14 01:33N 51°19' W 008°15'3 3.0
2017-Mar-14 00:31N 51°17' W 008°13'55 6.8
2017-Mar-13 16:24N 50°42' W 009°21'14 4.7
2017-Mar-13 13:19N 50°41' W 009°43'6 8.1
2017-Mar-13 12:33N 50°35' W 009°43'8 7.0
2017-Mar-13 11:26N 50°27' W 009°41'4 4.0
2017-Mar-13 10:33N 50°25' W 009°37'  

Dump ship's entire track history